Terminal Aerodrome Forecast
Issued by NWS

Home | Current Version | Previous Version | Graphics & Text | Print | Product List | Glossary On
Versions: 1 2 3 4 5 6 7 8 9 10 11 12 13 14 15 16 17 18 19 20 21 22 23 24 25 26 27 28 29 30 31 32 33 34
000
FTUS43 KLOT 150900 AAA
TAFMDW
TAF AMD
KMDW 150902Z 1509/1606 19010KT 1 1/2SM -DZ BR OVC002
     FM151100 18010KT 2SM BR OVC003
     FM151400 17011KT 3SM BR OVC005
     FM151700 15012KT 6SM BR OVC012
      TEMPO 1519/1522 -SHRA
     FM152200 14012KT 4SM BR VCSH OVC010
     FM160200 13010KT 2SM -DZRA BR OVC007=

USA.gov is the U.S. government's official web portal to all federal, state and local government web resources and services.